sensor_id;sensor_type;location;lat;lon;timestamp;P1;durP1;ratioP1;P2;durP2;ratioP2
44110;SDS011;29774;52.664;5.074;2022-10-16T00:01:24;1.77;;;0.60;;
44110;SDS011;29774;52.664;5.074;2022-10-16T00:03:52;2.40;;;0.73;;
44110;SDS011;29774;52.664;5.074;2022-10-16T00:06:18;1.90;;;1.58;;
44110;SDS011;29774;52.664;5.074;2022-10-16T00:08:45;3.65;;;0.82;;
44110;SDS011;29774;52.664;5.074;2022-10-16T00:11:15;2.67;;;1.05;;
44110;SDS011;29774;52.664;5.074;2022-10-16T00:13:43;2.10;;;0.75;;
44110;SDS011;29774;52.664;5.074;2022-10-16T00:16:10;4.68;;;0.82;;
44110;SDS011;29774;52.664;5.074;2022-10-16T00:18:36;1.83;;;0.70;;
44110;SDS011;29774;52.664;5.074;2022-10-16T00:21:04;2.40;;;0.68;;
44110;SDS011;29774;52.664;5.074;2022-10-16T00:23:31;1.50;;;0.50;;
44110;SDS011;29774;52.664;5.074;2022-10-16T00:25:58;1.10;;;0.77;;
44110;SDS011;29774;52.664;5.074;2022-10-16T00:28:25;2.55;;;0.90;;
44110;SDS011;29774;52.664;5.074;2022-10-16T00:30:51;1.67;;;0.90;;
44110;SDS011;29774;52.664;5.074;2022-10-16T00:33:17;1.15;;;0.70;;
44110;SDS011;29774;52.664;5.074;2022-10-16T00:35:42;2.13;;;0.60;;
44110;SDS011;29774;52.664;5.074;2022-10-16T00:38:08;1.25;;;0.60;;
44110;SDS011;29774;52.664;5.074;2022-10-16T00:40:34;3.17;;;0.88;;
44110;SDS011;29774;52.664;5.074;2022-10-16T00:43:00;1.38;;;0.68;;
44110;SDS011;29774;52.664;5.074;2022-10-16T00:45:25;1.58;;;0.75;;
44110;SDS011;29774;52.664;5.074;2022-10-16T00:47:51;1.98;;;0.77;;
44110;SDS011;29774;52.664;5.074;2022-10-16T00:50:30;2.58;;;1.20;;
44110;SDS011;29774;52.664;5.074;2022-10-16T00:52:58;2.70;;;0.85;;
44110;SDS011;29774;52.664;5.074;2022-10-16T00:55:25;1.58;;;0.85;;
44110;SDS011;29774;52.664;5.074;2022-10-16T00:57:51;1.45;;;0.80;;
44110;SDS011;29774;52.664;5.074;2022-10-16T01:00:19;1.23;;;0.77;;
44110;SDS011;29774;52.664;5.074;2022-10-16T01:02:54;1.30;;;0.80;;
44110;SDS011;29774;52.664;5.074;2022-10-16T01:05:22;1.98;;;1.27;;
44110;SDS011;29774;52.664;5.074;2022-10-16T01:10:26;2.33;;;0.50;;
44110;SDS011;29774;52.664;5.074;2022-10-16T01:13:13;1.80;;;0.70;;
44110;SDS011;29774;52.664;5.074;2022-10-16T01:15:54;1.63;;;0.80;;
44110;SDS011;29774;52.664;5.074;2022-10-16T01:21:24;2.88;;;0.90;;
44110;SDS011;29774;52.664;5.074;2022-10-16T01:26:44;2.25;;;0.75;;
44110;SDS011;29774;52.664;5.074;2022-10-16T01:32:04;0.85;;;0.80;;
44110;SDS011;29774;52.664;5.074;2022-10-16T01:34:47;2.20;;;0.90;;
44110;SDS011;29774;52.664;5.074;2022-10-16T01:37:39;1.88;;;0.93;;
44110;SDS011;29774;52.664;5.074;2022-10-16T01:40:07;1.25;;;0.60;;
44110;SDS011;29774;52.664;5.074;2022-10-16T01:42:37;0.95;;;0.77;;
44110;SDS011;29774;52.664;5.074;2022-10-16T01:45:08;2.55;;;0.75;;
44110;SDS011;29774;52.664;5.074;2022-10-16T01:47:38;1.73;;;0.73;;
44110;SDS011;29774;52.664;5.074;2022-10-16T01:50:05;1.50;;;0.93;;
44110;SDS011;29774;52.664;5.074;2022-10-16T01:52:33;1.38;;;0.80;;
44110;SDS011;29774;52.664;5.074;2022-10-16T01:55:02;0.85;;;0.70;;
44110;SDS011;29774;52.664;5.074;2022-10-16T01:57:30;1.17;;;0.73;;
44110;SDS011;29774;52.664;5.074;2022-10-16T02:00:00;1.70;;;0.90;;
44110;SDS011;29774;52.664;5.074;2022-10-16T02:02:30;1.88;;;1.20;;
44110;SDS011;29774;52.664;5.074;2022-10-16T02:04:58;2.92;;;0.93;;
44110;SDS011;29774;52.664;5.074;2022-10-16T02:07:28;1.45;;;0.70;;
44110;SDS011;29774;52.664;5.074;2022-10-16T02:09:54;1.90;;;0.80;;
44110;SDS011;29774;52.664;5.074;2022-10-16T02:12:26;1.17;;;0.85;;
44110;SDS011;29774;52.664;5.074;2022-10-16T02:14:55;2.20;;;0.80;;
44110;SDS011;29774;52.664;5.074;2022-10-16T02:17:21;1.08;;;0.70;;
44110;SDS011;29774;52.664;5.074;2022-10-16T02:19:47;1.38;;;0.57;;
44110;SDS011;29774;52.664;5.074;2022-10-16T02:22:17;1.27;;;0.80;;
44110;SDS011;29774;52.664;5.074;2022-10-16T02:29:55;1.08;;;0.80;;
44110;SDS011;29774;52.664;5.074;2022-10-16T02:32:28;1.98;;;1.00;;
44110;SDS011;29774;52.664;5.074;2022-10-16T02:34:57;1.67;;;0.73;;
44110;SDS011;29774;52.664;5.074;2022-10-16T02:37:25;1.30;;;0.80;;
44110;SDS011;29774;52.664;5.074;2022-10-16T02:39:52;1.35;;;0.82;;
44110;SDS011;29774;52.664;5.074;2022-10-16T02:42:19;2.20;;;1.20;;
44110;SDS011;29774;52.664;5.074;2022-10-16T02:44:44;1.13;;;0.80;;
44110;SDS011;29774;52.664;5.074;2022-10-16T02:47:10;2.05;;;0.70;;
44110;SDS011;29774;52.664;5.074;2022-10-16T02:49:35;3.05;;;0.70;;
44110;SDS011;29774;52.664;5.074;2022-10-16T02:52:01;2.15;;;0.60;;
44110;SDS011;29774;52.664;5.074;2022-10-16T02:54:27;1.08;;;0.93;;
44110;SDS011;29774;52.664;5.074;2022-10-16T02:56:52;1.95;;;0.82;;
44110;SDS011;29774;52.664;5.074;2022-10-16T02:59:18;0.70;;;0.70;;
44110;SDS011;29774;52.664;5.074;2022-10-16T03:01:43;2.05;;;0.90;;
44110;SDS011;29774;52.664;5.074;2022-10-16T03:04:09;0.60;;;0.50;;
44110;SDS011;29774;52.664;5.074;2022-10-16T03:06:34;1.52;;;0.90;;
44110;SDS011;29774;52.664;5.074;2022-10-16T03:09:00;3.53;;;0.80;;
44110;SDS011;29774;52.664;5.074;2022-10-16T03:11:26;2.08;;;0.70;;
44110;SDS011;29774;52.664;5.074;2022-10-16T03:13:53;2.10;;;0.70;;
44110;SDS011;29774;52.664;5.074;2022-10-16T03:16:18;1.10;;;0.75;;
44110;SDS011;29774;52.664;5.074;2022-10-16T03:18:47;1.67;;;0.60;;
44110;SDS011;29774;52.664;5.074;2022-10-16T03:21:13;1.63;;;0.90;;
44110;SDS011;29774;52.664;5.074;2022-10-16T03:23:39;0.80;;;0.75;;
44110;SDS011;29774;52.664;5.074;2022-10-16T03:26:04;0.75;;;0.75;;
44110;SDS011;29774;52.664;5.074;2022-10-16T03:28:30;1.52;;;0.73;;
44110;SDS011;29774;52.664;5.074;2022-10-16T03:30:55;1.33;;;0.60;;
44110;SDS011;29774;52.664;5.074;2022-10-16T03:33:21;1.38;;;0.90;;
44110;SDS011;29774;52.664;5.074;2022-10-16T03:35:52;1.85;;;0.95;;
44110;SDS011;29774;52.664;5.074;2022-10-16T03:38:19;2.35;;;1.33;;
44110;SDS011;29774;52.664;5.074;2022-10-16T03:40:45;2.28;;;1.00;;
44110;SDS011;29774;52.664;5.074;2022-10-16T03:43:11;2.03;;;1.02;;
44110;SDS011;29774;52.664;5.074;2022-10-16T03:45:36;1.88;;;1.13;;
44110;SDS011;29774;52.664;5.074;2022-10-16T03:48:02;2.92;;;1.00;;
44110;SDS011;29774;52.664;5.074;2022-10-16T03:50:28;2.38;;;1.13;;
44110;SDS011;29774;52.664;5.074;2022-10-16T03:52:54;2.13;;;1.33;;
44110;SDS011;29774;52.664;5.074;2022-10-16T03:55:19;3.30;;;1.40;;
44110;SDS011;29774;52.664;5.074;2022-10-16T03:57:45;1.88;;;1.10;;
44110;SDS011;29774;52.664;5.074;2022-10-16T04:00:11;2.50;;;1.00;;
44110;SDS011;29774;52.664;5.074;2022-10-16T04:02:37;1.67;;;1.08;;
44110;SDS011;29774;52.664;5.074;2022-10-16T04:05:03;3.22;;;0.70;;
44110;SDS011;29774;52.664;5.074;2022-10-16T04:07:29;1.48;;;1.10;;
44110;SDS011;29774;52.664;5.074;2022-10-16T04:09:54;1.98;;;0.90;;
44110;SDS011;29774;52.664;5.074;2022-10-16T04:12:20;2.08;;;0.98;;
44110;SDS011;29774;52.664;5.074;2022-10-16T04:14:46;1.45;;;0.73;;
44110;SDS011;29774;52.664;5.074;2022-10-16T04:17:11;1.15;;;0.80;;
44110;SDS011;29774;52.664;5.074;2022-10-16T04:19:37;1.02;;;0.90;;
44110;SDS011;29774;52.664;5.074;2022-10-16T04:22:02;1.88;;;0.90;;
44110;SDS011;29774;52.664;5.074;2022-10-16T04:24:28;1.20;;;0.82;;
44110;SDS011;29774;52.664;5.074;2022-10-16T04:26:53;2.15;;;0.95;;
44110;SDS011;29774;52.664;5.074;2022-10-16T04:29:19;1.02;;;0.80;;
44110;SDS011;29774;52.664;5.074;2022-10-16T04:31:44;1.27;;;0.77;;
44110;SDS011;29774;52.664;5.074;2022-10-16T04:34:10;1.23;;;0.80;;
44110;SDS011;29774;52.664;5.074;2022-10-16T04:36:35;1.58;;;1.00;;
44110;SDS011;29774;52.664;5.074;2022-10-16T04:39:01;1.20;;;1.10;;
44110;SDS011;29774;52.664;5.074;2022-10-16T04:41:26;2.85;;;1.05;;
44110;SDS011;29774;52.664;5.074;2022-10-16T04:43:52;1.80;;;0.70;;
44110;SDS011;29774;52.664;5.074;2022-10-16T04:46:18;1.10;;;0.95;;
44110;SDS011;29774;52.664;5.074;2022-10-16T04:48:43;2.38;;;1.08;;
44110;SDS011;29774;52.664;5.074;2022-10-16T04:51:09;1.20;;;0.93;;
44110;SDS011;29774;52.664;5.074;2022-10-16T04:53:34;2.97;;;1.00;;
44110;SDS011;29774;52.664;5.074;2022-10-16T04:56:00;4.78;;;1.10;;
44110;SDS011;29774;52.664;5.074;2022-10-16T04:58:26;1.77;;;0.98;;
44110;SDS011;29774;52.664;5.074;2022-10-16T05:00:51;2.75;;;1.02;;
44110;SDS011;29774;52.664;5.074;2022-10-16T05:03:17;1.58;;;1.08;;
44110;SDS011;29774;52.664;5.074;2022-10-16T05:05:43;1.50;;;0.90;;
44110;SDS011;29774;52.664;5.074;2022-10-16T05:08:09;3.38;;;1.42;;
44110;SDS011;29774;52.664;5.074;2022-10-16T05:10:35;1.48;;;1.00;;
44110;SDS011;29774;52.664;5.074;2022-10-16T05:13:01;0.95;;;0.65;;
44110;SDS011;29774;52.664;5.074;2022-10-16T05:15:26;1.58;;;1.27;;
44110;SDS011;29774;52.664;5.074;2022-10-16T05:17:54;2.42;;;1.08;;
44110;SDS011;29774;52.664;5.074;2022-10-16T05:20:20;1.42;;;1.20;;
44110;SDS011;29774;52.664;5.074;2022-10-16T05:22:46;1.70;;;1.00;;
44110;SDS011;29774;52.664;5.074;2022-10-16T05:25:12;0.85;;;0.77;;
44110;SDS011;29774;52.664;5.074;2022-10-16T05:27:37;1.63;;;1.10;;
44110;SDS011;29774;52.664;5.074;2022-10-16T05:30:03;2.63;;;0.90;;
44110;SDS011;29774;52.664;5.074;2022-10-16T05:32:29;2.95;;;1.20;;
44110;SDS011;29774;52.664;5.074;2022-10-16T05:34:54;1.80;;;0.98;;
44110;SDS011;29774;52.664;5.074;2022-10-16T05:37:20;2.00;;;1.42;;
44110;SDS011;29774;52.664;5.074;2022-10-16T05:39:45;1.98;;;1.00;;
44110;SDS011;29774;52.664;5.074;2022-10-16T05:42:11;1.52;;;0.90;;
44110;SDS011;29774;52.664;5.074;2022-10-16T05:44:37;2.28;;;0.98;;
44110;SDS011;29774;52.664;5.074;2022-10-16T05:47:02;1.45;;;0.88;;
44110;SDS011;29774;52.664;5.074;2022-10-16T05:49:28;1.13;;;0.70;;
44110;SDS011;29774;52.664;5.074;2022-10-16T05:51:53;1.58;;;0.90;;
44110;SDS011;29774;52.664;5.074;2022-10-16T05:54:19;2.45;;;1.17;;
44110;SDS011;29774;52.664;5.074;2022-10-16T05:56:44;3.15;;;1.10;;
44110;SDS011;29774;52.664;5.074;2022-10-16T05:59:10;1.17;;;0.90;;
44110;SDS011;29774;52.664;5.074;2022-10-16T06:01:35;3.35;;;1.40;;
44110;SDS011;29774;52.664;5.074;2022-10-16T06:04:01;2.00;;;1.10;;
44110;SDS011;29774;52.664;5.074;2022-10-16T06:06:27;0.98;;;0.75;;
44110;SDS011;29774;52.664;5.074;2022-10-16T06:08:55;1.55;;;0.93;;
44110;SDS011;29774;52.664;5.074;2022-10-16T06:11:22;1.10;;;0.70;;
44110;SDS011;29774;52.664;5.074;2022-10-16T06:13:50;1.90;;;0.90;;
44110;SDS011;29774;52.664;5.074;2022-10-16T06:16:17;1.92;;;0.70;;
44110;SDS011;29774;52.664;5.074;2022-10-16T06:18:43;3.17;;;1.10;;
44110;SDS011;29774;52.664;5.074;2022-10-16T06:21:28;1.52;;;0.80;;
44110;SDS011;29774;52.664;5.074;2022-10-16T06:23:54;0.98;;;0.80;;
44110;SDS011;29774;52.664;5.074;2022-10-16T06:26:23;1.67;;;0.70;;
44110;SDS011;29774;52.664;5.074;2022-10-16T06:28:56;1.13;;;0.50;;
44110;SDS011;29774;52.664;5.074;2022-10-16T06:31:22;2.25;;;0.93;;
44110;SDS011;29774;52.664;5.074;2022-10-16T06:33:52;1.60;;;0.75;;
44110;SDS011;29774;52.664;5.074;2022-10-16T06:36:18;1.08;;;0.82;;
44110;SDS011;29774;52.664;5.074;2022-10-16T06:38:45;2.83;;;0.85;;
44110;SDS011;29774;52.664;5.074;2022-10-16T06:41:18;1.83;;;0.80;;
44110;SDS011;29774;52.664;5.074;2022-10-16T06:43:45;1.77;;;0.57;;
44110;SDS011;29774;52.664;5.074;2022-10-16T06:46:13;1.05;;;0.70;;
44110;SDS011;29774;52.664;5.074;2022-10-16T06:48:40;3.75;;;0.82;;
44110;SDS011;29774;52.664;5.074;2022-10-16T06:51:10;1.75;;;0.63;;
44110;SDS011;29774;52.664;5.074;2022-10-16T06:53:37;1.48;;;0.80;;
44110;SDS011;29774;52.664;5.074;2022-10-16T06:58:36;2.25;;;0.93;;
44110;SDS011;29774;52.664;5.074;2022-10-16T07:01:02;2.22;;;0.70;;
44110;SDS011;29774;52.664;5.074;2022-10-16T07:03:29;1.38;;;0.80;;
44110;SDS011;29774;52.664;5.074;2022-10-16T07:05:54;1.40;;;0.60;;
44110;SDS011;29774;52.664;5.074;2022-10-16T07:08:20;2.33;;;1.33;;
44110;SDS011;29774;52.664;5.074;2022-10-16T07:10:45;2.60;;;0.88;;
44110;SDS011;29774;52.664;5.074;2022-10-16T07:13:11;1.13;;;0.75;;
44110;SDS011;29774;52.664;5.074;2022-10-16T07:15:38;1.40;;;0.82;;
44110;SDS011;29774;52.664;5.074;2022-10-16T07:18:04;1.30;;;0.63;;
44110;SDS011;29774;52.664;5.074;2022-10-16T07:20:30;0.68;;;0.50;;
44110;SDS011;29774;52.664;5.074;2022-10-16T07:22:55;1.67;;;0.70;;
44110;SDS011;29774;52.664;5.074;2022-10-16T07:25:21;3.67;;;0.93;;
44110;SDS011;29774;52.664;5.074;2022-10-16T07:27:46;1.05;;;0.80;;
44110;SDS011;29774;52.664;5.074;2022-10-16T07:30:12;2.40;;;0.80;;
44110;SDS011;29774;52.664;5.074;2022-10-16T07:32:38;1.13;;;0.77;;
44110;SDS011;29774;52.664;5.074;2022-10-16T07:35:03;1.25;;;0.70;;
44110;SDS011;29774;52.664;5.074;2022-10-16T07:37:29;1.15;;;0.68;;
44110;SDS011;29774;52.664;5.074;2022-10-16T07:39:55;2.72;;;0.70;;
44110;SDS011;29774;52.664;5.074;2022-10-16T07:42:20;1.20;;;0.60;;
44110;SDS011;29774;52.664;5.074;2022-10-16T07:44:46;0.80;;;0.80;;
44110;SDS011;29774;52.664;5.074;2022-10-16T07:47:12;1.00;;;0.80;;
44110;SDS011;29774;52.664;5.074;2022-10-16T07:49:37;1.15;;;0.60;;
44110;SDS011;29774;52.664;5.074;2022-10-16T07:52:03;0.77;;;0.57;;
44110;SDS011;29774;52.664;5.074;2022-10-16T07:54:28;3.97;;;1.25;;
44110;SDS011;29774;52.664;5.074;2022-10-16T07:56:54;1.05;;;0.77;;
44110;SDS011;29774;52.664;5.074;2022-10-16T07:59:20;1.05;;;0.73;;
44110;SDS011;29774;52.664;5.074;2022-10-16T08:01:45;1.23;;;0.77;;
44110;SDS011;29774;52.664;5.074;2022-10-16T08:04:11;2.38;;;0.80;;
44110;SDS011;29774;52.664;5.074;2022-10-16T08:06:37;2.05;;;0.75;;
44110;SDS011;29774;52.664;5.074;2022-10-16T08:09:04;3.03;;;0.85;;
44110;SDS011;29774;52.664;5.074;2022-10-16T08:11:31;4.93;;;1.52;;
44110;SDS011;29774;52.664;5.074;2022-10-16T08:13:56;2.28;;;1.00;;
44110;SDS011;29774;52.664;5.074;2022-10-16T08:16:22;4.90;;;1.08;;
44110;SDS011;29774;52.664;5.074;2022-10-16T08:18:48;1.45;;;0.95;;
44110;SDS011;29774;52.664;5.074;2022-10-16T08:21:16;2.92;;;0.80;;
44110;SDS011;29774;52.664;5.074;2022-10-16T08:23:43;1.65;;;0.70;;
44110;SDS011;29774;52.664;5.074;2022-10-16T08:26:09;2.90;;;0.93;;
44110;SDS011;29774;52.664;5.074;2022-10-16T08:28:36;2.75;;;0.95;;
44110;SDS011;29774;52.664;5.074;2022-10-16T08:31:05;3.45;;;1.02;;
44110;SDS011;29774;52.664;5.074;2022-10-16T08:33:31;3.40;;;0.98;;
44110;SDS011;29774;52.664;5.074;2022-10-16T08:35:57;2.90;;;1.33;;
44110;SDS011;29774;52.664;5.074;2022-10-16T08:38:23;1.88;;;0.60;;
44110;SDS011;29774;52.664;5.074;2022-10-16T08:40:49;3.03;;;0.80;;
44110;SDS011;29774;52.664;5.074;2022-10-16T08:51:06;3.72;;;1.42;;
44110;SDS011;29774;52.664;5.074;2022-10-16T08:53:42;2.85;;;0.75;;
44110;SDS011;29774;52.664;5.074;2022-10-16T08:56:13;3.88;;;0.90;;
44110;SDS011;29774;52.664;5.074;2022-10-16T08:58:39;3.92;;;1.40;;
44110;SDS011;29774;52.664;5.074;2022-10-16T09:01:11;14.13;;;2.13;;
44110;SDS011;29774;52.664;5.074;2022-10-16T09:03:58;22.70;;;2.95;;
44110;SDS011;29774;52.664;5.074;2022-10-16T09:23:52;13.63;;;2.22;;
44110;SDS011;29774;52.664;5.074;2022-10-16T09:25:54;7.07;;;2.20;;
44110;SDS011;29774;52.664;5.074;2022-10-16T09:28:20;9.68;;;2.05;;
44110;SDS011;29774;52.664;5.074;2022-10-16T09:30:46;15.85;;;2.92;;
44110;SDS011;29774;52.664;5.074;2022-10-16T09:33:15;19.48;;;3.70;;
44110;SDS011;29774;52.664;5.074;2022-10-16T09:35:44;12.98;;;3.03;;
44110;SDS011;29774;52.664;5.074;2022-10-16T09:38:41;12.77;;;2.45;;
44110;SDS011;29774;52.664;5.074;2022-10-16T09:41:16;13.35;;;2.55;;
44110;SDS011;29774;52.664;5.074;2022-10-16T09:43:54;9.75;;;2.08;;
44110;SDS011;29774;52.664;5.074;2022-10-16T09:48:58;12.13;;;2.35;;
44110;SDS011;29774;52.664;5.074;2022-10-16T09:53:56;7.22;;;2.10;;
44110;SDS011;29774;52.664;5.074;2022-10-16T09:59:01;8.38;;;2.30;;
44110;SDS011;29774;52.664;5.074;2022-10-16T10:01:37;8.13;;;2.17;;
44110;SDS011;29774;52.664;5.074;2022-10-16T10:04:08;6.53;;;2.20;;
44110;SDS011;29774;52.664;5.074;2022-10-16T10:06:35;7.97;;;1.95;;
44110;SDS011;29774;52.664;5.074;2022-10-16T10:11:45;71.38;;;9.80;;
44110;SDS011;29774;52.664;5.074;2022-10-16T10:14:26;65.38;;;9.88;;
44110;SDS011;29774;52.664;5.074;2022-10-16T10:17:14;68.90;;;9.82;;
44110;SDS011;29774;52.664;5.074;2022-10-16T10:20:00;44.42;;;7.30;;
44110;SDS011;29774;52.664;5.074;2022-10-16T10:22:45;26.95;;;3.78;;
44110;SDS011;29774;52.664;5.074;2022-10-16T10:33:50;12.43;;;3.50;;
44110;SDS011;29774;52.664;5.074;2022-10-16T10:36:30;8.45;;;1.40;;
44110;SDS011;29774;52.664;5.074;2022-10-16T10:53:11;6.35;;;2.30;;
44110;SDS011;29774;52.664;5.074;2022-10-16T10:56:00;10.82;;;2.08;;
44110;SDS011;29774;52.664;5.074;2022-10-16T11:06:55;4.88;;;1.50;;
44110;SDS011;29774;52.664;5.074;2022-10-16T11:09:25;27.17;;;8.88;;
44110;SDS011;29774;52.664;5.074;2022-10-16T11:14:54;16.67;;;5.78;;
44110;SDS011;29774;52.664;5.074;2022-10-16T11:18:16;15.55;;;4.30;;
44110;SDS011;29774;52.664;5.074;2022-10-16T11:20:57;14.10;;;5.00;;
44110;SDS011;29774;52.664;5.074;2022-10-16T11:23:35;10.23;;;3.50;;
44110;SDS011;29774;52.664;5.074;2022-10-16T11:26:15;12.35;;;4.20;;
44110;SDS011;29774;52.664;5.074;2022-10-16T11:28:49;9.98;;;3.78;;
44110;SDS011;29774;52.664;5.074;2022-10-16T11:31:22;8.65;;;3.15;;
44110;SDS011;29774;52.664;5.074;2022-10-16T11:34:06;9.05;;;2.88;;
44110;SDS011;29774;52.664;5.074;2022-10-16T11:36:47;5.78;;;2.80;;
44110;SDS011;29774;52.664;5.074;2022-10-16T11:39:26;6.43;;;2.90;;
44110;SDS011;29774;52.664;5.074;2022-10-16T11:41:59;7.05;;;2.90;;
44110;SDS011;29774;52.664;5.074;2022-10-16T11:50:26;9.07;;;2.55;;
44110;SDS011;29774;52.664;5.074;2022-10-16T11:55:41;6.72;;;2.10;;
44110;SDS011;29774;52.664;5.074;2022-10-16T11:58:20;6.00;;;2.33;;
44110;SDS011;29774;52.664;5.074;2022-10-16T12:01:14;4.90;;;2.50;;
44110;SDS011;29774;52.664;5.074;2022-10-16T12:03:58;9.23;;;2.25;;
44110;SDS011;29774;52.664;5.074;2022-10-16T12:06:39;5.75;;;1.83;;
44110;SDS011;29774;52.664;5.074;2022-10-16T12:09:13;5.47;;;2.60;;
44110;SDS011;29774;52.664;5.074;2022-10-16T12:12:00;5.68;;;1.63;;
44110;SDS011;29774;52.664;5.074;2022-10-16T12:20:00;5.68;;;2.25;;
44110;SDS011;29774;52.664;5.074;2022-10-16T12:22:48;6.75;;;2.42;;
44110;SDS011;29774;52.664;5.074;2022-10-16T12:25:22;5.40;;;1.38;;
44110;SDS011;29774;52.664;5.074;2022-10-16T12:27:54;4.68;;;1.40;;
44110;SDS011;29774;52.664;5.074;2022-10-16T12:30:22;6.03;;;1.90;;
44110;SDS011;29774;52.664;5.074;2022-10-16T12:32:53;5.05;;;1.75;;
44110;SDS011;29774;52.664;5.074;2022-10-16T12:35:22;8.60;;;1.83;;
44110;SDS011;29774;52.664;5.074;2022-10-16T12:37:52;7.47;;;1.98;;
44110;SDS011;29774;52.664;5.074;2022-10-16T12:42:52;4.15;;;1.42;;
44110;SDS011;29774;52.664;5.074;2022-10-16T12:45:24;4.45;;;1.60;;
44110;SDS011;29774;52.664;5.074;2022-10-16T12:47:53;4.88;;;1.20;;
44110;SDS011;29774;52.664;5.074;2022-10-16T12:50:38;4.07;;;1.00;;
44110;SDS011;29774;52.664;5.074;2022-10-16T12:53:21;7.32;;;2.13;;
44110;SDS011;29774;52.664;5.074;2022-10-16T13:01:02;6.05;;;1.27;;
44110;SDS011;29774;52.664;5.074;2022-10-16T13:06:39;3.05;;;1.17;;
44110;SDS011;29774;52.664;5.074;2022-10-16T13:11:58;2.40;;;1.13;;
44110;SDS011;29774;52.664;5.074;2022-10-16T13:14:51;6.93;;;1.48;;
44110;SDS011;29774;52.664;5.074;2022-10-16T13:17:24;6.53;;;1.23;;
44110;SDS011;29774;52.664;5.074;2022-10-16T13:20:03;4.63;;;1.20;;
44110;SDS011;29774;52.664;5.074;2022-10-16T13:28:27;5.88;;;1.45;;
44110;SDS011;29774;52.664;5.074;2022-10-16T13:30:55;4.65;;;1.15;;
44110;SDS011;29774;52.664;5.074;2022-10-16T13:36:21;4.38;;;1.30;;
44110;SDS011;29774;52.664;5.074;2022-10-16T13:38:58;6.47;;;1.60;;
44110;SDS011;29774;52.664;5.074;2022-10-16T13:41:42;4.43;;;1.67;;
44110;SDS011;29774;52.664;5.074;2022-10-16T13:44:18;3.65;;;1.20;;
44110;SDS011;29774;52.664;5.074;2022-10-16T13:46:45;2.88;;;0.90;;
44110;SDS011;29774;52.664;5.074;2022-10-16T13:49:12;4.95;;;1.25;;
44110;SDS011;29774;52.664;5.074;2022-10-16T13:51:42;4.82;;;0.98;;
44110;SDS011;29774;52.664;5.074;2022-10-16T13:54:23;7.55;;;1.50;;
44110;SDS011;29774;52.664;5.074;2022-10-16T13:56:50;2.90;;;0.82;;
44110;SDS011;29774;52.664;5.074;2022-10-16T13:59:35;5.53;;;0.95;;
44110;SDS011;29774;52.664;5.074;2022-10-16T14:04:47;5.97;;;1.73;;
44110;SDS011;29774;52.664;5.074;2022-10-16T14:07:14;3.88;;;1.17;;
44110;SDS011;29774;52.664;5.074;2022-10-16T14:09:47;6.40;;;1.30;;
44110;SDS011;29774;52.664;5.074;2022-10-16T14:12:14;5.85;;;1.73;;
44110;SDS011;29774;52.664;5.074;2022-10-16T14:14:41;4.05;;;1.10;;
44110;SDS011;29774;52.664;5.074;2022-10-16T14:17:14;4.03;;;1.20;;
44110;SDS011;29774;52.664;5.074;2022-10-16T14:19:45;3.33;;;0.82;;
44110;SDS011;29774;52.664;5.074;2022-10-16T14:25:18;7.60;;;1.90;;
44110;SDS011;29774;52.664;5.074;2022-10-16T14:30:34;4.05;;;1.58;;
44110;SDS011;29774;52.664;5.074;2022-10-16T14:35:45;3.28;;;0.95;;
44110;SDS011;29774;52.664;5.074;2022-10-16T14:38:17;9.73;;;1.50;;
44110;SDS011;29774;52.664;5.074;2022-10-16T14:40:46;5.68;;;1.88;;
44110;SDS011;29774;52.664;5.074;2022-10-16T14:43:23;5.95;;;1.15;;
44110;SDS011;29774;52.664;5.074;2022-10-16T14:45:56;6.18;;;2.08;;
44110;SDS011;29774;52.664;5.074;2022-10-16T14:48:22;7.25;;;1.80;;
44110;SDS011;29774;52.664;5.074;2022-10-16T14:50:48;10.80;;;2.03;;
44110;SDS011;29774;52.664;5.074;2022-10-16T14:53:14;4.43;;;1.05;;
44110;SDS011;29774;52.664;5.074;2022-10-16T14:55:40;6.07;;;1.48;;
44110;SDS011;29774;52.664;5.074;2022-10-16T14:58:19;4.35;;;1.50;;
44110;SDS011;29774;52.664;5.074;2022-10-16T15:00:47;4.88;;;1.50;;
44110;SDS011;29774;52.664;5.074;2022-10-16T15:03:12;6.57;;;1.73;;
44110;SDS011;29774;52.664;5.074;2022-10-16T15:05:38;6.43;;;1.88;;
44110;SDS011;29774;52.664;5.074;2022-10-16T15:08:04;5.60;;;1.40;;
44110;SDS011;29774;52.664;5.074;2022-10-16T15:10:29;6.10;;;1.30;;
44110;SDS011;29774;52.664;5.074;2022-10-16T15:12:58;5.05;;;1.20;;
44110;SDS011;29774;52.664;5.074;2022-10-16T15:17:55;6.90;;;1.48;;
44110;SDS011;29774;52.664;5.074;2022-10-16T15:20:25;5.18;;;1.48;;
44110;SDS011;29774;52.664;5.074;2022-10-16T15:22:59;8.10;;;1.73;;
44110;SDS011;29774;52.664;5.074;2022-10-16T15:25:39;3.78;;;1.38;;
44110;SDS011;29774;52.664;5.074;2022-10-16T15:28:11;7.68;;;1.65;;
44110;SDS011;29774;52.664;5.074;2022-10-16T15:30:37;7.85;;;1.35;;
44110;SDS011;29774;52.664;5.074;2022-10-16T15:33:04;7.40;;;1.50;;
44110;SDS011;29774;52.664;5.074;2022-10-16T15:35:34;7.50;;;1.55;;
44110;SDS011;29774;52.664;5.074;2022-10-16T15:38:02;4.00;;;1.25;;
44110;SDS011;29774;52.664;5.074;2022-10-16T15:40:28;6.05;;;1.60;;
44110;SDS011;29774;52.664;5.074;2022-10-16T15:42:54;5.65;;;1.30;;
44110;SDS011;29774;52.664;5.074;2022-10-16T15:45:20;9.65;;;1.90;;
44110;SDS011;29774;52.664;5.074;2022-10-16T15:47:47;8.07;;;1.85;;
44110;SDS011;29774;52.664;5.074;2022-10-16T15:50:13;6.93;;;1.80;;
44110;SDS011;29774;52.664;5.074;2022-10-16T15:52:40;6.35;;;1.33;;
44110;SDS011;29774;52.664;5.074;2022-10-16T15:55:07;6.40;;;1.70;;
44110;SDS011;29774;52.664;5.074;2022-10-16T15:57:34;5.45;;;2.03;;
44110;SDS011;29774;52.664;5.074;2022-10-16T16:00:03;9.63;;;2.08;;
44110;SDS011;29774;52.664;5.074;2022-10-16T16:02:37;9.63;;;1.92;;
44110;SDS011;29774;52.664;5.074;2022-10-16T16:05:03;8.25;;;1.88;;
44110;SDS011;29774;52.664;5.074;2022-10-16T16:07:31;8.55;;;1.80;;
44110;SDS011;29774;52.664;5.074;2022-10-16T16:09:58;7.10;;;1.70;;
44110;SDS011;29774;52.664;5.074;2022-10-16T16:12:24;7.60;;;2.00;;
44110;SDS011;29774;52.664;5.074;2022-10-16T16:14:50;7.25;;;1.70;;
44110;SDS011;29774;52.664;5.074;2022-10-16T16:17:16;5.85;;;1.48;;
44110;SDS011;29774;52.664;5.074;2022-10-16T16:19:42;8.40;;;2.00;;
44110;SDS011;29774;52.664;5.074;2022-10-16T16:22:07;7.32;;;2.20;;
44110;SDS011;29774;52.664;5.074;2022-10-16T16:24:33;7.88;;;2.78;;
44110;SDS011;29774;52.664;5.074;2022-10-16T16:26:58;10.77;;;2.97;;
44110;SDS011;29774;52.664;5.074;2022-10-16T16:29:24;11.55;;;4.15;;
44110;SDS011;29774;52.664;5.074;2022-10-16T16:31:50;11.48;;;3.97;;
44110;SDS011;29774;52.664;5.074;2022-10-16T16:34:21;5.13;;;2.20;;
44110;SDS011;29774;52.664;5.074;2022-10-16T16:36:50;5.45;;;2.47;;
44110;SDS011;29774;52.664;5.074;2022-10-16T16:39:19;7.35;;;2.75;;
44110;SDS011;29774;52.664;5.074;2022-10-16T16:41:45;7.63;;;3.72;;
44110;SDS011;29774;52.664;5.074;2022-10-16T16:44:10;9.27;;;4.50;;
44110;SDS011;29774;52.664;5.074;2022-10-16T16:46:36;10.13;;;4.18;;
44110;SDS011;29774;52.664;5.074;2022-10-16T16:49:04;5.63;;;2.40;;
44110;SDS011;29774;52.664;5.074;2022-10-16T16:51:31;7.90;;;2.13;;
44110;SDS011;29774;52.664;5.074;2022-10-16T16:53:57;8.00;;;2.30;;
44110;SDS011;29774;52.664;5.074;2022-10-16T16:56:23;8.90;;;2.38;;
44110;SDS011;29774;52.664;5.074;2022-10-16T16:58:50;6.65;;;2.85;;
44110;SDS011;29774;52.664;5.074;2022-10-16T17:01:17;11.80;;;3.08;;
44110;SDS011;29774;52.664;5.074;2022-10-16T17:03:43;11.82;;;4.93;;
44110;SDS011;29774;52.664;5.074;2022-10-16T17:06:10;13.40;;;3.50;;
44110;SDS011;29774;52.664;5.074;2022-10-16T17:08:37;7.50;;;3.60;;
44110;SDS011;29774;52.664;5.074;2022-10-16T17:11:03;10.05;;;3.58;;
44110;SDS011;29774;52.664;5.074;2022-10-16T17:13:30;16.63;;;7.43;;
44110;SDS011;29774;52.664;5.074;2022-10-16T17:15:59;8.43;;;4.00;;